Time;durP1;ratioP1;P1;durP2;ratioP2;P2;SDS_P1;SDS_P2;PMS_P1;PMS_P2;Temp;Humidity;BMP_temperature;BMP_pressure;BME280_temperature;BME280_humidity;BME280_pressure;Samples;Min_cycle;Max_cycle;Signal;HPM_P1;HPM_P2
2023/05/06 00:01:48;;;;;;;11.30;7.07;;;;;;;14.07;100.00;101510.97;5063842;28;20121;-64
2023/05/06 00:04:16;;;;;;;11.45;8.25;;;;;;;14.04;100.00;101512.31;5070087;28;20055;-64
2023/05/06 00:06:43;;;;;;;10.98;7.72;;;;;;;14.03;100.00;101505.22;5071318;28;20037;-60
2023/05/06 00:09:11;;;;;;;10.50;7.15;;;;;;;14.02;100.00;101509.06;5049632;28;20045;-64
2023/05/06 00:11:39;;;;;;;10.13;7.10;;;;;;;14.01;100.00;101506.59;5056142;28;20068;-64
2023/05/06 00:14:07;;;;;;;9.80;7.80;;;;;;;14.01;100.00;101507.41;5052678;28;20503;-64
2023/05/06 00:16:34;;;;;;;12.90;7.75;;;;;;;14.02;100.00;101498.09;5044169;28;20049;-66
2023/05/06 00:19:02;;;;;;;11.13;7.40;;;;;;;14.02;100.00;101492.63;5043999;28;20160;-65
2023/05/06 00:21:30;;;;;;;10.18;6.93;;;;;;;14.02;100.00;101487.13;5036889;28;20099;-65
2023/05/06 00:23:58;;;;;;;9.38;7.10;;;;;;;14.02;100.00;101491.78;5023208;28;20053;-65
2023/05/06 00:26:26;;;;;;;9.35;7.22;;;;;;;14.01;100.00;101496.44;5056762;28;20047;-65
2023/05/06 00:28:54;;;;;;;10.13;7.53;;;;;;;13.98;100.00;101486.03;5055077;28;20049;-66
2023/05/06 00:31:22;;;;;;;10.80;7.30;;;;;;;13.97;100.00;101489.84;5055591;28;20055;-65
2023/05/06 00:33:50;;;;;;;12.05;7.30;;;;;;;13.96;100.00;101480.00;5055784;28;20552;-65
2023/05/06 00:36:17;;;;;;;10.35;7.72;;;;;;;13.95;100.00;101483.84;5053152;28;20045;-66
2023/05/06 00:38:45;;;;;;;12.25;7.43;;;;;;;13.93;100.00;101483.31;5058431;28;20052;-66
2023/05/06 00:41:13;;;;;;;12.00;7.28;;;;;;;13.91;100.00;101481.94;5072245;28;20068;-64
2023/05/06 00:43:40;;;;;;;11.10;7.85;;;;;;;13.90;100.00;101481.09;5039801;28;20076;-65
2023/05/06 00:46:10;;;;;;;12.52;7.68;;;;;;;13.90;100.00;101478.34;5034589;28;20092;-64
2023/05/06 00:48:38;;;;;;;11.00;7.60;;;;;;;13.88;100.00;101486.03;5053189;28;20048;-63
2023/05/06 00:51:06;;;;;;;10.25;7.68;;;;;;;13.85;100.00;101484.69;5055816;28;20461;-64
2023/05/06 00:53:33;;;;;;;12.32;7.90;;;;;;;13.84;100.00;101482.19;5039141;28;20084;-65
2023/05/06 00:56:01;;;;;;;11.40;7.60;;;;;;;13.84;100.00;101479.47;5021993;28;20041;-65
2023/05/06 00:58:29;;;;;;;11.25;7.63;;;;;;;13.84;100.00;101479.47;5046437;28;20055;-64
2023/05/06 01:00:57;;;;;;;10.50;7.63;;;;;;;13.84;100.00;101479.47;5075641;28;20052;-64
2023/05/06 01:03:26;;;;;;;10.27;7.68;;;;;;;13.84;100.00;101482.19;5062649;28;20477;-64
2023/05/06 01:06:21;;;;;;;13.23;7.85;;;;;;;13.80;100.00;101473.69;5053519;28;20075;-64
2023/05/06 01:09:18;;;;;;;12.10;7.45;;;;;;;13.79;100.00;101482.19;5073093;28;20079;-64
2023/05/06 01:12:16;;;;;;;10.90;8.23;;;;;;;13.79;100.00;101479.47;5055798;28;20412;-64
2023/05/06 01:14:55;;;;;;;12.52;8.15;;;;;;;13.79;100.00;101476.72;5055043;28;20049;-64
2023/05/06 01:17:27;;;;;;;13.40;8.63;;;;;;;13.78;100.00;101475.06;5037500;28;20048;-66
2023/05/06 01:19:58;;;;;;;11.18;8.23;;;;;;;13.72;100.00;101477.00;5043944;28;20049;-65
2023/05/06 01:22:26;;;;;;;11.38;7.47;;;;;;;13.70;100.00;101472.88;5038532;28;20045;-65
2023/05/06 01:24:54;;;;;;;12.40;8.40;;;;;;;13.69;100.00;101476.72;5017946;28;20120;-65
2023/05/06 01:27:23;;;;;;;9.85;8.15;;;;;;;13.69;100.00;101477.53;5045443;28;20052;-65
2023/05/06 01:29:51;;;;;;;12.02;8.07;;;;;;;13.63;100.00;101473.97;5028488;28;20054;-65
2023/05/06 01:32:21;;;;;;;12.63;8.90;;;;;;;13.55;100.00;101474.50;5050494;28;20045;-65
2023/05/06 01:34:59;;;;;;;11.05;8.40;;;;;;;13.51;100.00;101465.19;5043101;28;20045;-65
2023/05/06 01:38:00;;;;;;;11.10;8.32;;;;;;;13.51;100.00;101465.19;5054844;28;20120;-64
2023/05/06 01:40:29;;;;;;;10.45;7.93;;;;;;;13.53;100.00;101463.00;5034533;28;20383;-65
2023/05/06 01:42:57;;;;;;;11.05;8.32;;;;;;;13.55;100.00;101466.28;5034463;28;20069;-63
2023/05/06 01:45:27;;;;;;;10.57;8.38;;;;;;;13.56;100.00;101459.72;5051793;28;20079;-63
2023/05/06 01:47:56;;;;;;;11.68;8.20;;;;;;;13.58;100.00;101468.47;5053185;28;20107;-65
2023/05/06 01:50:24;;;;;;;11.70;8.48;;;;;;;13.56;100.00;101467.91;5054047;28;20068;-64
2023/05/06 01:53:02;;;;;;;13.20;8.05;;;;;;;13.55;100.00;101466.28;5054666;28;20398;-65
2023/05/06 01:55:31;;;;;;;10.82;8.00;;;;;;;13.54;100.00;101470.13;5056392;28;20052;-64
2023/05/06 01:57:58;;;;;;;13.25;7.93;;;;;;;13.54;100.00;101472.03;5055858;28;20095;-64
2023/05/06 02:00:26;;;;;;;13.45;8.10;;;;;;;13.53;100.00;101478.63;5054699;28;20083;-65
2023/05/06 02:02:54;;;;;;;11.85;8.55;;;;;;;13.53;100.00;101473.13;5056128;28;20136;-65
2023/05/06 02:05:22;;;;;;;12.93;8.45;;;;;;;13.52;100.00;101475.06;5034670;28;20408;-64
2023/05/06 02:07:54;;;;;;;11.20;8.35;;;;;;;13.51;100.00;101481.59;5052484;28;20499;-65
2023/05/06 02:10:22;;;;;;;11.13;8.50;;;;;;;13.53;100.00;101482.16;5037372;28;20056;-66
2023/05/06 02:12:56;;;;;;;13.32;8.38;;;;;;;13.51;100.00;101481.59;5053709;28;20075;-65
2023/05/06 02:15:25;;;;;;;12.18;8.68;;;;;;;13.49;100.00;101480.25;5046977;28;20048;-65
2023/05/06 02:17:52;;;;;;;13.88;8.30;;;;;;;13.47;100.00;101491.47;5073130;28;20536;-65
2023/05/06 02:20:20;;;;;;;12.02;8.90;;;;;;;13.45;100.00;101488.19;5036901;28;20045;-64
2023/05/06 02:22:48;;;;;;;11.23;8.88;;;;;;;13.43;100.00;101485.72;5053553;28;20051;-65
2023/05/06 02:25:16;;;;;;;11.68;8.45;;;;;;;13.42;100.00;101489.56;5053600;28;20102;-64
2023/05/06 02:27:45;;;;;;;12.23;9.00;;;;;;;13.41;100.00;101482.41;5054005;28;20060;-66
2023/05/06 02:30:13;;;;;;;14.35;9.60;;;;;;;13.42;100.00;101488.72;5053747;28;20080;-64
2023/05/06 02:32:41;;;;;;;13.50;9.30;;;;;;;13.39;100.00;101483.78;5036934;28;20094;-64
2023/05/06 02:35:09;;;;;;;12.68;8.77;;;;;;;13.37;100.00;101491.44;5055370;28;20045;-64
2023/05/06 02:37:37;;;;;;;11.60;8.55;;;;;;;13.33;100.00;101480.22;5034183;28;20049;-65
2023/05/06 02:40:05;;;;;;;12.48;9.38;;;;;;;13.28;100.00;101484.88;5040620;28;20417;-66
2023/05/06 02:42:34;;;;;;;11.35;9.13;;;;;;;13.24;100.00;101481.81;5056049;28;20051;-64
2023/05/06 02:45:02;;;;;;;14.38;8.82;;;;;;;13.21;100.00;101483.16;5045180;28;20133;-66
2023/05/06 02:47:32;;;;;;;14.40;8.85;;;;;;;13.22;100.00;101482.06;5041509;28;20109;-65
2023/05/06 02:49:59;;;;;;;11.93;8.95;;;;;;;13.22;100.00;101479.31;5048354;28;20056;-65
2023/05/06 02:52:27;;;;;;;12.80;9.13;;;;;;;13.22;100.00;101473.84;5034961;28;20085;-65
2023/05/06 02:54:55;;;;;;;12.25;9.30;;;;;;;13.19;100.00;101473.59;5067337;28;20048;-65
2023/05/06 02:57:23;;;;;;;10.55;8.65;;;;;;;13.17;100.00;101473.03;5052235;28;20460;-64
2023/05/06 02:59:50;;;;;;;12.45;8.77;;;;;;;13.18;100.00;101478.25;5067382;28;20075;-65
2023/05/06 03:02:18;;;;;;;13.05;8.82;;;;;;;13.19;100.00;101474.41;5058999;28;20049;-65
2023/05/06 03:04:46;;;;;;;12.02;8.57;;;;;;;13.20;100.00;101476.06;5055495;28;20041;-65
2023/05/06 03:07:14;;;;;;;11.88;8.65;;;;;;;13.18;100.00;101470.03;5037942;28;20065;-64
2023/05/06 03:09:41;;;;;;;11.20;8.80;;;;;;;13.14;100.00;101479.88;5036936;28;20053;-65
2023/05/06 03:12:10;;;;;;;13.02;9.00;;;;;;;13.12;100.00;101473.84;5033899;28;20494;-65
2023/05/06 03:14:39;;;;;;;11.98;8.80;;;;;;;13.14;100.00;101471.66;5033886;28;20045;-64
2023/05/06 03:17:06;;;;;;;11.85;8.15;;;;;;;13.14;100.00;101468.09;5055497;28;20057;-65
2023/05/06 03:19:36;;;;;;;12.25;8.93;;;;;;;13.13;100.00;101470.03;5072844;28;20154;-65
2023/05/06 03:22:06;;;;;;;11.90;9.15;;;;;;;13.10;100.00;101464.25;5065579;28;20076;-65
2023/05/06 03:24:37;;;;;;;12.40;8.95;;;;;;;13.07;100.00;101471.09;5025763;28;20447;-64
2023/05/06 03:27:06;;;;;;;11.05;8.75;;;;;;;13.05;100.00;101473.25;5055361;28;20068;-65
2023/05/06 03:29:34;;;;;;;13.65;8.90;;;;;;;13.05;100.00;101466.97;5055738;28;20048;-66
2023/05/06 03:32:05;;;;;;;13.00;9.20;;;;;;;13.02;100.00;101462.88;5050565;28;20040;-64
2023/05/06 03:34:39;;;;;;;11.23;8.73;;;;;;;12.96;100.00;101469.41;5053044;28;20044;-63
2023/05/06 03:37:09;;;;;;;12.60;9.13;;;;;;;12.94;100.00;101469.69;5052029;28;20409;-65
2023/05/06 03:39:40;;;;;;;12.32;8.43;;;;;;;12.94;100.00;101468.84;5051657;28;20045;-64
2023/05/06 03:42:07;;;;;;;12.77;8.68;;;;;;;12.97;100.00;101465.59;5036116;28;20041;-65
2023/05/06 03:44:37;;;;;;;11.85;9.02;;;;;;;12.98;100.00;101472.69;5059034;28;20076;-64
2023/05/06 03:47:05;;;;;;;11.70;8.55;;;;;;;12.98;100.00;101473.50;5063322;28;20440;-64
2023/05/06 03:49:34;;;;;;;10.93;8.05;;;;;;;12.98;100.00;101470.78;5052127;28;20037;-64
2023/05/06 03:52:03;;;;;;;14.27;8.80;;;;;;;12.97;100.00;101471.06;5056184;28;20068;-65
2023/05/06 03:54:31;;;;;;;10.75;8.38;;;;;;;12.95;100.00;101473.25;5071622;28;20103;-64
2023/05/06 03:57:00;;;;;;;12.57;8.68;;;;;;;12.93;100.00;101472.69;5079358;28;20048;-64
2023/05/06 03:59:28;;;;;;;10.95;8.25;;;;;;;12.89;100.00;101461.47;5056479;28;20501;-64
2023/05/06 04:01:57;;;;;;;11.25;8.57;;;;;;;12.88;100.00;101461.72;5055157;28;20060;-65
2023/05/06 04:04:26;;;;;;;11.50;8.10;;;;;;;12.87;100.00;101462.78;5060846;28;20045;-62
2023/05/06 04:06:55;;;;;;;13.43;9.10;;;;;;;12.82;100.00;101471.84;5062668;28;20110;-68
2023/05/06 04:09:24;;;;;;;13.50;8.68;;;;;;;12.79;100.00;101472.34;5060777;28;20107;-62
2023/05/06 04:11:53;;;;;;;10.93;8.48;;;;;;;12.77;100.00;101469.88;5044252;28;20113;-63
2023/05/06 04:14:20;;;;;;;15.82;9.65;;;;;;;12.78;100.00;101473.44;5045918;28;20081;-62
2023/05/06 04:16:48;;;;;;;12.13;8.95;;;;;;;12.73;100.00;101471.50;5044118;28;20128;-63
2023/05/06 04:19:16;;;;;;;10.98;8.05;;;;;;;12.73;100.00;101470.69;5052202;28;20230;-63
2023/05/06 04:21:45;;;;;;;11.77;8.88;;;;;;;12.74;100.00;101478.59;5019588;28;20045;-64
2023/05/06 04:24:15;;;;;;;12.15;8.73;;;;;;;12.73;100.00;101476.16;5051761;28;20045;-64
2023/05/06 04:26:43;;;;;;;14.18;8.93;;;;;;;12.70;100.00;101482.97;5050984;28;20107;-64
2023/05/06 04:29:11;;;;;;;12.30;8.98;;;;;;;12.68;100.00;101487.06;5018747;28;20076;-62
2023/05/06 04:31:46;;;;;;;10.68;8.00;;;;;;;12.66;100.00;101490.06;5036449;28;20104;-64
2023/05/06 04:34:15;;;;;;;12.20;7.97;;;;;;;12.67;100.00;101499.09;5034264;28;20052;-63
2023/05/06 04:36:45;;;;;;;15.27;8.45;;;;;;;12.65;100.00;101501.25;5034339;28;20040;-64
2023/05/06 04:39:20;;;;;;;12.30;8.50;;;;;;;12.66;100.00;101495.53;5028554;28;20497;-63
2023/05/06 04:41:50;;;;;;;11.60;8.65;;;;;;;12.70;100.00;101499.38;5053191;28;20040;-64
2023/05/06 04:44:26;;;;;;;12.52;8.68;;;;;;;12.75;100.00;101496.69;5054328;28;20049;-65
2023/05/06 04:46:54;;;;;;;12.75;8.48;;;;;;;12.81;100.00;101493.97;5037131;28;20145;-65
2023/05/06 04:49:22;;;;;;;13.63;9.20;;;;;;;12.83;100.00;101498.06;5056344;28;20076;-64
2023/05/06 04:51:51;;;;;;;11.95;8.38;;;;;;;12.86;100.00;101491.25;5054554;28;20080;-62
2023/05/06 04:54:18;;;;;;;14.25;9.00;;;;;;;12.88;100.00;101497.28;5053940;28;20148;-63
2023/05/06 04:56:46;;;;;;;10.45;8.00;;;;;;;12.90;100.00;101503.31;5052068;28;20493;-63
2023/05/06 04:59:16;;;;;;;13.45;8.50;;;;;;;12.92;100.00;101496.47;5072681;28;20053;-63
2023/05/06 05:01:44;;;;;;;11.90;8.90;;;;;;;12.96;100.00;101499.50;5075028;28;20162;-64
2023/05/06 05:04:12;;;;;;;11.20;8.25;;;;;;;12.97;100.00;101503.88;5075092;28;20175;-64
2023/05/06 05:06:41;;;;;;;12.90;8.48;;;;;;;12.99;100.00;101501.72;5063230;28;20053;-63
2023/05/06 05:09:09;;;;;;;12.88;8.85;;;;;;;13.01;100.00;101504.97;5053527;28;20116;-62
2023/05/06 05:11:40;;;;;;;11.07;8.20;;;;;;;13.05;100.00;101505.28;5054413;28;20485;-62
2023/05/06 05:14:08;;;;;;;14.63;8.13;;;;;;;13.05;100.00;101506.09;5038223;28;20477;-64
2023/05/06 05:16:43;;;;;;;12.93;8.85;;;;;;;13.08;100.00;101513.75;5055827;28;20044;-63
2023/05/06 05:19:13;;;;;;;11.20;8.13;;;;;;;13.11;100.00;101515.97;5038089;28;20044;-64
2023/05/06 05:21:42;;;;;;;13.52;8.40;;;;;;;13.13;100.00;101519.28;5055604;28;20390;-65
2023/05/06 05:24:12;;;;;;;11.32;7.68;;;;;;;13.13;100.00;101524.75;5056006;28;20045;-63
2023/05/06 05:26:40;;;;;;;11.75;8.30;;;;;;;13.12;100.00;101523.09;5034897;28;20493;-62
2023/05/06 05:29:08;;;;;;;11.85;8.20;;;;;;;13.12;100.00;101528.56;5012504;28;20428;-63
2023/05/06 05:31:37;;;;;;;11.77;7.55;;;;;;;13.14;100.00;101520.09;5035759;28;20053;-64
2023/05/06 05:34:06;;;;;;;10.35;7.53;;;;;;;13.15;100.00;101528.00;5035703;28;20544;-64
2023/05/06 05:36:34;;;;;;;11.05;7.75;;;;;;;13.16;100.00;101529.69;5035628;28;20053;-64
2023/05/06 05:39:05;;;;;;;11.38;8.00;;;;;;;13.17;100.00;101539.53;5053146;28;20504;-63
2023/05/06 05:41:39;;;;;;;12.15;7.72;;;;;;;13.18;100.00;101532.13;5024700;28;20531;-63
2023/05/06 05:44:08;;;;;;;10.75;7.85;;;;;;;13.19;100.00;101533.78;5040770;28;20106;-64
2023/05/06 05:46:36;;;;;;;9.63;7.13;;;;;;;13.19;100.00;101533.78;5068552;28;20063;-64
2023/05/06 05:49:05;;;;;;;13.30;8.00;;;;;;;13.19;100.00;101540.06;5056472;28;20396;-63
2023/05/06 05:51:33;;;;;;;11.75;7.88;;;;;;;13.20;100.00;101535.41;5037335;28;20072;-65
2023/05/06 05:54:04;;;;;;;11.35;8.00;;;;;;;13.21;100.00;101546.09;5036908;28;20049;-65
2023/05/06 05:56:32;;;;;;;13.65;7.18;;;;;;;13.22;100.00;101545.00;5064160;28;20049;-64
2023/05/06 05:59:00;;;;;;;12.90;7.65;;;;;;;13.21;100.00;101551.59;5058564;28;20044;-64
2023/05/06 06:01:28;;;;;;;10.43;7.28;;;;;;;13.21;100.00;101548.84;5068769;28;20493;-63
2023/05/06 06:03:57;;;;;;;10.63;7.30;;;;;;;13.24;100.00;101552.13;5053510;28;20499;-64
2023/05/06 06:06:26;;;;;;;12.60;7.32;;;;;;;13.24;100.00;101546.66;5034030;28;20485;-63
2023/05/06 06:08:54;;;;;;;13.25;8.07;;;;;;;13.24;100.00;101547.47;5044590;28;20076;-63
2023/05/06 06:11:24;;;;;;;11.55;7.60;;;;;;;13.26;100.00;101548.03;5037322;28;20071;-63
2023/05/06 06:13:52;;;;;;;11.88;8.57;;;;;;;13.28;100.00;101547.81;5054669;28;20037;-64
2023/05/06 06:16:20;;;;;;;9.95;6.85;;;;;;;13.31;100.00;101544.53;5037326;28;20079;-65
2023/05/06 06:18:48;;;;;;;15.45;8.23;;;;;;;13.31;100.00;101541.81;5053148;28;20094;-64
2023/05/06 06:21:17;;;;;;;13.52;8.88;;;;;;;13.34;100.00;101544.00;5020589;28;20116;-63
2023/05/06 06:23:46;;;;;;;12.55;8.48;;;;;;;13.35;100.00;101541.00;5053170;28;20133;-65
2023/05/06 06:26:13;;;;;;;15.70;7.90;;;;;;;13.37;100.00;101546.19;5052687;28;20048;-64
2023/05/06 06:28:43;;;;;;;14.90;8.73;;;;;;;13.39;100.00;101538.53;5072656;28;20047;-65
2023/05/06 06:31:11;;;;;;;9.90;6.40;;;;;;;13.40;100.00;101551.97;5056678;28;20417;-65
2023/05/06 06:33:39;;;;;;;13.70;6.80;;;;;;;13.43;100.00;101547.84;5074645;28;20056;-64
2023/05/06 06:36:07;;;;;;;11.77;7.32;;;;;;;13.43;100.00;101547.84;5023999;28;20049;-64
2023/05/06 06:38:35;;;;;;;12.75;7.10;;;;;;;13.44;100.00;101541.28;5050241;28;20132;-65
2023/05/06 06:41:03;;;;;;;12.73;8.05;;;;;;;13.43;100.00;101545.13;5053998;28;20053;-65
2023/05/06 06:43:31;;;;;;;11.73;8.02;;;;;;;13.43;100.00;101542.38;5037054;28;20049;-64
2023/05/06 06:46:01;;;;;;;12.18;8.05;;;;;;;13.44;100.00;101549.50;5052532;28;20049;-65
2023/05/06 06:48:29;;;;;;;12.02;7.43;;;;;;;13.46;100.00;101555.53;5055078;28;20048;-64
2023/05/06 06:50:56;;;;;;;11.65;7.72;;;;;;;13.47;100.00;101550.88;5052851;28;20532;-65
2023/05/06 06:53:24;;;;;;;13.50;7.68;;;;;;;13.49;100.00;101554.16;5067955;28;20494;-64
2023/05/06 06:55:52;;;;;;;12.43;7.63;;;;;;;13.49;100.00;101546.75;5019396;28;20053;-67
2023/05/06 06:58:20;;;;;;;14.73;8.32;;;;;;;13.53;100.00;101553.34;5032778;28;20050;-65
2023/05/06 07:00:48;;;;;;;10.80;7.30;;;;;;;13.54;100.00;101557.75;5053870;28;20451;-66
2023/05/06 07:03:18;;;;;;;12.38;7.40;;;;;;;13.58;100.00;101556.09;5041442;28;20053;-65
2023/05/06 07:05:46;;;;;;;12.00;7.97;;;;;;;13.60;100.00;101555.84;5046560;28;20090;-65
2023/05/06 07:08:15;;;;;;;15.68;7.78;;;;;;;13.62;100.00;101554.47;5038396;28;20044;-64
2023/05/06 07:10:43;;;;;;;12.50;7.40;;;;;;;13.68;100.00;101557.22;5052525;28;20049;-65
2023/05/06 07:13:11;;;;;;;11.57;7.10;;;;;;;13.72;100.00;101563.81;5036452;28;20147;-65
2023/05/06 07:15:39;;;;;;;12.15;7.65;;;;;;;13.76;100.00;101556.72;5064371;28;20068;-63
2023/05/06 07:18:08;;;;;;;13.65;7.43;;;;;;;13.78;100.00;101563.56;5050481;28;20098;-65
2023/05/06 07:20:36;;;;;;;12.20;8.20;;;;;;;13.80;100.00;101563.25;5053002;28;20060;-64
2023/05/06 07:23:03;;;;;;;14.07;8.60;;;;;;;13.83;100.00;101565.47;5054807;28;20120;-65
2023/05/06 07:25:31;;;;;;;15.65;9.68;;;;;;;13.83;100.00;101566.31;5054660;28;20472;-65
2023/05/06 07:27:59;;;;;;;16.90;9.82;;;;;;;13.85;100.00;101566.00;5052119;28;20049;-66
2023/05/06 07:30:27;;;;;;;18.10;8.70;;;;;;;13.89;100.00;101569.03;5032496;28;20421;-65
2023/05/06 07:32:54;;;;;;;11.18;7.15;;;;;;;13.90;100.00;101573.41;5032841;28;20053;-64
2023/05/06 07:35:22;;;;;;;16.25;9.00;;;;;;;13.92;100.00;101580.25;5058028;28;20411;-65
2023/05/06 07:37:50;;;;;;;12.80;7.22;;;;;;;13.96;100.00;101581.38;5073363;28;20053;-66
2023/05/06 07:40:18;;;;;;;11.52;7.05;;;;;;;14.01;100.00;101573.16;5057103;28;20469;-65
2023/05/06 07:42:45;;;;;;;14.57;7.35;;;;;;;14.04;100.00;101574.53;5053424;28;20049;-64
2023/05/06 07:45:14;;;;;;;14.10;6.93;;;;;;;14.10;100.00;101578.94;5017798;28;20393;-65
2023/05/06 07:47:41;;;;;;;14.90;8.02;;;;;;;14.16;100.00;101582.50;5052602;28;20748;-64
2023/05/06 07:50:09;;;;;;;13.80;8.50;;;;;;;14.18;100.00;101575.63;5057892;28;20053;-62
2023/05/06 07:52:37;;;;;;;15.80;9.75;;;;;;;14.16;100.00;101575.09;5067627;28;20072;-63
2023/05/06 07:55:08;;;;;;;16.60;10.32;;;;;;;14.15;100.00;101570.72;5065837;28;20443;-66
2023/05/06 07:57:36;;;;;;;16.77;11.15;;;;;;;14.17;100.00;101575.94;5055265;28;20059;-65
2023/05/06 08:00:05;;;;;;;18.20;10.70;;;;;;;14.18;100.00;101572.06;5056516;28;20077;-64
2023/05/06 08:02:42;;;;;;;19.10;11.02;;;;;;;14.22;100.00;101581.41;5067254;28;20044;-65
2023/05/06 08:05:11;;;;;;;19.88;11.43;;;;;;;14.23;100.00;101583.03;5062578;28;20053;-64
2023/05/06 08:07:43;;;;;;;17.97;11.40;;;;;;;14.25;100.00;101575.38;4466989;28;10000939;-67
2023/05/06 08:10:10;;;;;;;25.95;12.73;;;;;;;14.26;100.00;101575.09;5051169;28;20452;-66
2023/05/06 08:12:38;;;;;;;18.75;10.85;;;;;;;14.30;100.00;101575.38;5051092;28;20049;-66
2023/05/06 08:15:07;;;;;;;22.45;10.57;;;;;;;14.34;100.00;101575.66;5049452;28;20052;-65
2023/05/06 08:17:34;;;;;;;19.88;13.00;;;;;;;14.38;100.00;101579.47;5052366;28;20055;-65
2023/05/06 08:20:02;;;;;;;22.77;12.40;;;;;;;14.43;100.00;101585.78;5053844;28;20049;-64
2023/05/06 08:22:30;;;;;;;26.50;14.63;;;;;;;14.47;100.00;101578.63;5052572;28;20053;-65
2023/05/06 08:24:59;;;;;;;25.20;13.50;;;;;;;14.49;100.00;101583.84;5055197;28;20132;-65
2023/05/06 08:27:27;;;;;;;20.85;12.25;;;;;;;14.53;100.00;101576.72;5040650;28;20056;-64
2023/05/06 08:29:55;;;;;;;19.83;12.52;;;;;;;14.58;100.00;101581.41;5041882;28;20060;-64
2023/05/06 08:32:23;;;;;;;21.33;12.70;;;;;;;14.62;100.00;101577.00;5049682;28;20040;-65
2023/05/06 08:34:51;;;;;;;19.40;12.60;;;;;;;14.63;100.00;101581.41;5062406;28;20435;-66
2023/05/06 08:37:19;;;;;;;19.33;11.63;;;;;;;14.68;100.00;101578.66;5061347;28;20052;-65
2023/05/06 08:39:47;;;;;;;17.15;10.80;;;;;;;14.73;100.00;101575.09;5079387;28;20067;-65
2023/05/06 08:42:14;;;;;;;17.92;9.75;;;;;;;14.77;100.00;101571.50;5078385;28;20488;-66
2023/05/06 08:44:43;;;;;;;15.60;10.98;;;;;;;14.80;100.00;101576.44;5059118;28;20071;-63
2023/05/06 08:47:11;;;;;;;14.20;9.80;;;;;;;14.82;100.00;101571.50;5058057;28;20060;-65
2023/05/06 08:49:38;;;;;;;12.75;9.43;;;;;;;14.86;100.00;101569.84;5056118;28;20129;-64
2023/05/06 08:52:07;;;;;;;16.45;10.13;;;;;;;14.89;100.00;101576.69;5061518;28;20070;-67
2023/05/06 08:54:35;;;;;;;12.45;7.13;;;;;;;14.90;100.00;101568.16;5075467;28;20515;-66
2023/05/06 08:57:07;;;;;;;21.73;7.93;;;;;;;14.94;100.00;101568.44;5075109;28;20489;-66
2023/05/06 08:59:40;;;;;;;12.20;6.60;;;;;;;14.98;100.00;101565.94;5074863;28;20154;-64
2023/05/06 09:02:09;;;;;;;11.48;6.70;;;;;;;15.01;100.00;101565.38;5074689;28;20050;-67
2023/05/06 09:04:37;;;;;;;11.05;6.03;;;;;;;15.05;100.00;101561.00;5055213;28;20041;-64
2023/05/06 09:07:04;;;;;;;11.90;6.13;;;;;;;15.09;100.00;101564.81;5056123;28;20529;-65
2023/05/06 09:09:32;;;;;;;12.07;6.57;;;;;;;15.13;100.00;101563.16;5038428;28;20114;-66
2023/05/06 09:12:01;;;;;;;11.77;6.22;;;;;;;15.17;100.00;101563.41;5060169;28;20051;-65
2023/05/06 09:14:28;;;;;;;13.73;5.80;;;;;;;15.18;100.00;101559.59;5074592;28;20121;-64
2023/05/06 09:16:56;;;;;;;17.98;7.70;;;;;;;15.24;100.00;101563.94;5075716;28;20127;-67
2023/05/06 09:19:24;;;;;;;21.00;8.13;;;;;;;15.28;100.00;101557.59;5058121;28;20044;-66
2023/05/06 09:21:52;;;;;;;26.63;9.20;;;;;;;15.34;100.00;101564.72;5057369;28;20049;-65
2023/05/06 09:24:20;;;;;;;23.55;8.23;;;;;;;15.42;100.00;101557.00;5055551;28;20091;-65
2023/05/06 09:26:49;;;;;;;13.10;5.35;;;;;;;15.41;100.00;101552.59;5021448;28;20099;-65
2023/05/06 09:29:17;;;;;;;9.95;5.13;;;;;;;15.42;100.00;101557.00;5054426;28;20044;-65
2023/05/06 09:31:46;;;;;;;9.13;4.80;;;;;;;15.42;100.00;101552.31;5043057;28;20044;-66
2023/05/06 09:34:16;;;;;;;13.70;6.28;;;;;;;15.47;100.00;101554.22;5075618;28;20059;-67
2023/05/06 09:36:44;;;;;;;12.02;5.88;;;;;;;15.51;100.00;101555.28;5074567;28;20122;-65
2023/05/06 09:39:11;;;;;;;12.75;5.65;;;;;;;15.54;100.00;101554.72;5075492;28;20059;-65
2023/05/06 09:41:39;;;;;;;12.65;5.93;;;;;;;15.56;100.00;101552.50;5056305;28;20051;-66
2023/05/06 09:44:07;;;;;;;8.95;4.50;;;;;;;15.61;100.00;101544.25;5075869;28;20080;-64
2023/05/06 09:46:35;;;;;;;13.52;5.65;;;;;;;15.66;100.00;101546.97;5057699;28;20147;-66
2023/05/06 09:49:03;;;;;;;11.65;5.65;;;;;;;15.70;100.00;101550.78;5073918;28;20059;-65
2023/05/06 09:51:31;;;;;;;9.20;4.90;;;;;;;15.74;100.00;101549.13;5048650;28;20405;-65
2023/05/06 09:54:00;;;;;;;12.20;4.75;;;;;;;15.77;97.31;101548.56;5035596;28;20108;-65
2023/05/06 09:56:30;;;;;;;11.02;4.75;;;;;;;15.86;97.67;101551.53;5051937;28;20056;-69
2023/05/06 09:59:00;;;;;;;10.32;4.57;;;;;;;15.92;96.69;101555.88;5021683;28;20049;-70
2023/05/06 10:01:29;;;;;;;12.20;4.78;;;;;;;15.94;95.37;101548.16;5024054;28;20052;-71
2023/05/06 10:04:08;;;;;;;11.75;5.10;;;;;;;16.00;96.09;101546.22;5055910;28;20045;-70
2023/05/06 10:06:39;;;;;;;13.70;5.78;;;;;;;16.04;95.14;101540.94;5049746;28;20053;-70
2023/05/06 10:09:10;;;;;;;12.48;5.50;;;;;;;16.11;96.75;101536.75;5054999;28;20051;-69
2023/05/06 10:11:38;;;;;;;11.70;5.10;;;;;;;16.16;94.69;101536.72;5060545;28;20444;-69
2023/05/06 10:14:06;;;;;;;19.45;7.07;;;;;;;16.22;96.71;101533.94;4345461;28;10000703;-70
2023/05/06 10:16:35;;;;;;;13.38;5.13;;;;;;;16.23;95.21;101528.13;5048499;28;20147;-70
2023/05/06 10:19:04;;;;;;;9.35;4.63;;;;;;;16.26;93.40;101530.31;5048848;28;20083;-71
2023/05/06 10:21:33;;;;;;;10.27;4.93;;;;;;;16.31;93.75;101522.03;5038615;28;20040;-71
2023/05/06 10:24:06;;;;;;;12.02;4.00;;;;;;;16.41;88.01;101521.09;5034015;28;20041;-69
2023/05/06 10:26:38;;;;;;;12.63;5.05;;;;;;;16.45;89.37;101518.56;5052127;28;20055;-70
2023/05/06 10:29:10;;;;;;;13.30;5.03;;;;;;;16.47;90.38;101517.16;5051472;28;20053;-71
2023/05/06 10:31:52;;;;;;;14.93;4.80;;;;;;;16.52;89.92;101519.88;5029879;28;20044;-70
2023/05/06 10:34:22;;;;;;;17.13;6.07;;;;;;;16.54;91.41;101517.66;5053206;28;20044;-69
2023/05/06 10:36:53;;;;;;;20.17;7.03;;;;;;;16.60;92.65;101510.19;5049892;28;20060;-71
2023/05/06 10:39:21;;;;;;;10.10;4.35;;;;;;;16.64;91.60;101513.16;5031537;28;20064;-70
2023/05/06 10:41:48;;;;;;;7.43;3.63;;;;;;;16.69;86.79;101513.09;5043785;28;20052;-70
2023/05/06 10:44:16;;;;;;;7.97;3.53;;;;;;;16.71;84.09;101508.13;5051895;28;20056;-70
2023/05/06 10:46:58;;;;;;;8.70;3.88;;;;;;;16.75;83.92;101507.25;5051070;28;20456;-71
2023/05/06 10:49:26;;;;;;;11.70;4.75;;;;;;;16.79;84.91;101497.31;5051962;28;20048;-70
2023/05/06 10:52:12;;;;;;;45.35;9.18;;;;;;;16.86;89.57;101496.13;5032281;28;20077;-71
2023/05/06 10:54:50;;;;;;;15.03;5.53;;;;;;;16.83;86.25;101500.31;5048064;28;20099;-71
2023/05/06 10:57:25;;;;;;;16.40;5.93;;;;;;;16.89;88.08;101490.06;5051625;28;20452;-71
2023/05/06 10:59:54;;;;;;;7.13;3.72;;;;;;;16.93;87.25;101486.44;5035049;28;20083;-71
2023/05/06 11:02:23;;;;;;;18.27;6.32;;;;;;;17.00;89.33;101488.81;5051703;28;20501;-68
2023/05/06 11:04:51;;;;;;;6.47;3.03;;;;;;;17.07;84.74;101493.97;5035218;28;20038;-68
2023/05/06 11:07:25;;;;;;;16.25;5.82;;;;;;;17.14;87.34;101488.91;5029529;28;20053;-65
2023/05/06 11:10:00;;;;;;;22.67;7.55;;;;;;;17.17;89.40;101482.81;5031009;28;20111;-65
2023/05/06 11:12:50;;;;;;;9.60;3.90;;;;;;;17.19;86.03;101491.59;5032476;28;20418;-66
2023/05/06 11:15:39;;;;;;;21.10;6.00;;;;;;;17.20;88.42;101484.97;5053298;28;20057;-66
2023/05/06 11:18:32;;;;;;;22.50;5.70;;;;;;;17.17;87.95;101496.56;5034169;28;20592;-66
2023/05/06 11:21:05;;;;;;;9.40;4.22;;;;;;;17.17;87.81;101491.91;5052189;28;20051;-66